Time;durP1;ratioP1;P1;durP2;ratioP2;P2;SDS_P1;SDS_P2;PMS_P1;PMS_P2;Temp;Humidity;BMP_temperature;BMP_pressure;BME280_temperature;BME280_humidity;BME280_pressure;Samples;Min_cycle;Max_cycle;Signal;HPM_P1;HPM_P2
2022/06/26 00:00:53;;;;;;;;;;;;;;;19.09;69.35;101107.91;5027171;28;19909;-93
2022/06/26 00:03:18;;;;;;;;;;;;;;;19.12;70.96;101088.94;5020767;28;19924;-93
2022/06/26 00:05:43;;;;;;;;;;;;;;;19.21;69.15;101087.38;5026346;28;19915;-94
2022/06/26 00:08:09;;;;;;;;;;;;;;;19.29;68.40;101095.72;5027435;28;20523;-93
2022/06/26 00:10:34;;;;;;;;;;;;;;;19.29;68.43;101107.31;5027271;28;20253;-92
2022/06/26 00:12:59;;;;;;;;;;;;;;;19.28;68.90;101108.28;5025176;28;19920;-91
2022/06/26 00:15:24;;;;;;;;;;;;;;;19.19;70.78;101108.94;5023001;28;19917;-94
2022/06/26 00:17:49;;;;;;;;;;;;;;;19.18;67.94;101111.75;5035105;28;19909;-92
2022/06/26 00:20:15;;;;;;;;;;;;;;;19.10;69.67;101113.13;5028742;28;19913;-90
2022/06/26 00:22:40;;;;;;;;;;;;;;;19.13;69.56;101106.72;5018434;28;19956;-93
2022/06/26 00:25:06;;;;;;;;;;;;;;;19.15;68.83;101111.97;5026428;28;20320;-93
2022/06/26 00:27:31;;;;;;;;;;;;;;;19.19;68.34;101108.94;5022859;28;19924;-93
2022/06/26 00:29:56;;;;;;;;;;;;;;;19.20;68.96;101116.00;5021806;28;20419;-92
2022/06/26 00:32:21;;;;;;;;;;;;;;;19.23;69.13;101117.63;5027738;28;21195;-94
2022/06/26 00:34:47;;;;;;;;;;;;;;;19.24;67.70;101114.84;5025659;28;19909;-91
2022/06/26 00:37:12;;;;;;;;;;;;;;;19.28;66.93;101124.38;5025846;28;19921;-92
2022/06/26 00:39:37;;;;;;;;;;;;;;;19.21;67.40;101125.78;5023519;28;19916;-92
2022/06/26 00:42:02;;;;;;;;;;;;;;;19.18;68.99;101131.38;5024402;28;19970;-91
2022/06/26 00:44:29;;;;;;;;;;;;;;;19.21;68.99;101139.19;5025944;28;20371;-94
2022/06/26 00:46:54;;;;;;;;;;;;;;;19.23;68.39;101139.94;5025889;28;19920;-92
2022/06/26 00:49:20;;;;;;;;;;;;;;;19.25;68.01;101143.34;5033790;28;19913;-92
2022/06/26 00:51:50;;;;;;;;;;;;;;;19.28;68.35;101144.97;5023957;28;20435;-93
2022/06/26 00:54:16;;;;;;;;;;;;;;;19.23;68.20;101149.81;5027769;28;19928;-93
2022/06/26 00:56:41;;;;;;;;;;;;;;;19.16;67.86;101154.72;5030837;28;19913;-92
2022/06/26 00:59:06;;;;;;;;;;;;;;;19.11;68.04;101160.41;5021709;28;19916;-91
2022/06/26 01:01:34;;;;;;;;;;;;;;;19.14;68.55;101162.03;5024050;28;19917;-92
2022/06/26 01:03:59;;;;;;;;;;;;;;;19.18;68.38;101154.63;5030985;28;19920;-93
2022/06/26 01:06:24;;;;;;;;;;;;;;;19.20;68.28;101161.59;5024480;28;19913;-92
2022/06/26 01:08:49;;;;;;;;;;;;;;;19.22;68.40;101161.50;5023925;28;20266;-92
2022/06/26 01:11:18;;;;;;;;;;;;;;;19.20;67.04;101158.06;5016158;28;20281;-93
2022/06/26 01:13:44;;;;;;;;;;;;;;;19.15;69.38;101149.47;5022814;28;19917;-94
2022/06/26 01:16:10;;;;;;;;;;;;;;;19.08;67.86;101157.13;5024414;28;20011;-94
2022/06/26 01:18:35;;;;;;;;;;;;;;;18.94;70.15;101160.75;5024421;28;20325;-91
2022/06/26 01:21:01;;;;;;;;;;;;;;;18.88;69.07;101160.31;5024657;28;19920;-93
2022/06/26 01:23:26;;;;;;;;;;;;;;;18.83;70.75;101166.00;5023650;28;19921;-91
2022/06/26 01:25:51;;;;;;;;;;;;;;;18.72;70.76;101171.25;5015026;28;19940;-93
2022/06/26 01:28:17;;;;;;;;;;;;;;;18.67;70.19;101173.34;5026786;28;20284;-92
2022/06/26 01:30:42;;;;;;;;;;;;;;;18.68;70.46;101177.75;5024460;28;20277;-94
2022/06/26 01:33:08;;;;;;;;;;;;;;;18.61;72.02;101178.19;5025299;28;19940;-92
2022/06/26 01:35:33;;;;;;;;;;;;;;;18.66;71.03;101177.00;5024985;28;19913;-93
2022/06/26 01:38:12;;;;;;;;;;;;;;;18.66;73.38;101182.38;5027234;28;20406;-93
2022/06/26 01:40:38;;;;;;;;;;;;;;;18.63;70.95;101174.53;5024395;28;20413;-91
2022/06/26 01:43:03;;;;;;;;;;;;;;;18.63;71.45;101175.38;5022958;28;19949;-92
2022/06/26 01:45:28;;;;;;;;;;;;;;;18.63;71.42;101174.53;5019519;28;19917;-94
2022/06/26 01:47:54;;;;;;;;;;;;;;;18.65;71.23;101170.75;5028408;28;19975;-91
2022/06/26 01:50:19;;;;;;;;;;;;;;;18.67;71.53;101176.88;5031250;28;19992;-92
2022/06/26 01:52:44;;;;;;;;;;;;;;;18.69;70.87;101172.31;5026085;28;20012;-93
2022/06/26 01:55:10;;;;;;;;;;;;;;;18.69;72.46;101169.63;5024856;28;19913;-94
2022/06/26 01:57:35;;;;;;;;;;;;;;;18.59;71.71;101171.19;5031383;28;19920;-93
2022/06/26 02:00:00;;;;;;;;;;;;;;;18.60;70.96;101171.13;5025850;28;19917;-92
2022/06/26 02:02:25;;;;;;;;;;;;;;;18.64;71.62;101168.19;5027772;28;20387;-91
2022/06/26 02:04:50;;;;;;;;;;;;;;;18.61;72.16;101164.78;5029796;28;20015;-89
2022/06/26 02:07:16;;;;;;;;;;;;;;;18.58;70.86;101164.97;5024278;28;19956;-92
2022/06/26 02:15:09;;;;;;;;;;;;;;;18.63;70.60;101155.78;5028804;28;19924;-92
2022/06/26 02:17:34;;;;;;;;;;;;;;;18.61;70.43;101146.03;5037938;28;19912;-93
2022/06/26 02:19:59;;;;;;;;;;;;;;;18.62;70.46;101138.84;5035234;28;20372;-93
2022/06/26 02:22:24;;;;;;;;;;;;;;;18.56;70.93;101147.31;5026602;28;19924;-89
2022/06/26 02:24:50;;;;;;;;;;;;;;;18.49;71.57;101143.34;5023632;28;19929;-92
2022/06/26 02:27:15;;;;;;;;;;;;;;;18.47;70.62;101148.81;5023137;28;19955;-93
2022/06/26 02:29:40;;;;;;;;;;;;;;;18.50;71.04;101147.72;5028044;28;20353;-91
2022/06/26 02:32:05;;;;;;;;;;;;;;;18.53;69.82;101139.50;5030973;28;19943;-92
2022/06/26 02:34:30;;;;;;;;;;;;;;;18.54;72.31;101143.88;5030245;28;20332;-91
2022/06/26 02:36:56;;;;;;;;;;;;;;;18.55;70.67;101158.97;5020576;28;19905;-93
2022/06/26 02:39:21;;;;;;;;;;;;;;;18.54;71.47;101157.25;5019721;28;20368;-91
2022/06/26 02:41:46;;;;;;;;;;;;;;;18.51;70.51;101169.06;5035563;28;20364;-92
2022/06/26 02:44:11;;;;;;;;;;;;;;;18.36;72.00;101180.78;5027641;28;19988;-91
2022/06/26 02:46:36;;;;;;;;;;;;;;;18.32;72.13;101189.97;5029044;28;19908;-91
2022/06/26 02:49:02;;;;;;;;;;;;;;;18.30;71.57;101187.41;5028919;28;19916;-91
2022/06/26 02:51:27;;;;;;;;;;;;;;;18.32;71.03;101176.59;5027501;28;19971;-93
2022/06/26 02:53:52;;;;;;;;;;;;;;;18.22;72.68;101188.88;5029341;28;19916;-93
2022/06/26 02:56:17;;;;;;;;;;;;;;;18.01;73.68;101192.03;5025693;28;19913;-93
2022/06/26 02:58:42;;;;;;;;;;;;;;;17.88;72.25;101196.47;5029917;28;19931;-88
2022/06/26 03:01:08;;;;;;;;;;;;;;;17.83;72.81;101199.44;5036624;28;20357;-91
2022/06/26 03:03:33;;;;;;;;;;;;;;;17.75;72.22;101200.88;5034854;28;20506;-94
2022/06/26 03:05:58;;;;;;;;;;;;;;;17.74;71.71;101207.19;5021212;28;19924;-92
2022/06/26 03:08:23;;;;;;;;;;;;;;;17.74;72.02;101205.38;5026796;28;19914;-92
2022/06/26 03:10:50;;;;;;;;;;;;;;;17.76;71.61;101211.47;5029153;28;19917;-92
2022/06/26 03:13:15;;;;;;;;;;;;;;;17.74;71.02;101197.34;5025744;28;20284;-91
2022/06/26 03:15:41;;;;;;;;;;;;;;;17.73;71.82;101201.00;5020745;28;19921;-91
2022/06/26 03:18:06;;;;;;;;;;;;;;;17.69;71.03;101215.47;5020039;28;19909;-90
2022/06/26 03:20:31;;;;;;;;;;;;;;;17.66;71.10;101221.00;5037017;28;19924;-91
2022/06/26 03:22:57;;;;;;;;;;;;;;;17.66;71.33;101221.00;5033671;28;19925;-90
2022/06/26 03:25:22;;;;;;;;;;;;;;;17.50;71.24;101222.97;5032234;28;19916;-91
2022/06/26 03:27:47;;;;;;;;;;;;;;;17.43;71.68;101222.47;5024878;28;19925;-90
2022/06/26 03:30:12;;;;;;;;;;;;;;;17.42;71.69;101226.09;5026462;28;19920;-92
2022/06/26 03:32:38;;;;;;;;;;;;;;;17.43;71.29;101233.16;5027549;28;19932;-91
2022/06/26 03:35:03;;;;;;;;;;;;;;;17.37;73.05;101228.22;5025878;28;20609;-92
2022/06/26 03:37:29;;;;;;;;;;;;;;;17.26;72.16;101220.00;5023884;28;20430;-90
2022/06/26 03:39:54;;;;;;;;;;;;;;;17.13;72.92;101235.94;5025413;28;19948;-91
2022/06/26 03:42:19;;;;;;;;;;;;;;;17.12;72.78;101255.59;5019861;28;20016;-91
2022/06/26 03:44:44;;;;;;;;;;;;;;;17.08;72.65;101256.72;5025894;28;19952;-90
2022/06/26 03:47:10;;;;;;;;;;;;;;;17.01;73.67;101263.38;5024570;28;19924;-89
2022/06/26 03:49:35;;;;;;;;;;;;;;;16.96;74.67;101260.97;5029151;28;19975;-91
2022/06/26 03:52:00;;;;;;;;;;;;;;;17.00;72.58;101264.34;5026606;28;19924;-88
2022/06/26 03:54:25;;;;;;;;;;;;;;;17.03;71.89;101262.34;5022843;28;19970;-89
2022/06/26 03:56:51;;;;;;;;;;;;;;;17.05;72.01;101259.56;5026228;28;20343;-92
2022/06/26 03:59:16;;;;;;;;;;;;;;;17.11;72.31;101261.00;5028829;28;20114;-91
2022/06/26 04:01:41;;;;;;;;;;;;;;;17.16;71.64;101264.25;5030751;28;19920;-91
2022/06/26 04:04:06;;;;;;;;;;;;;;;17.20;71.36;101261.31;5030117;28;19913;-92
2022/06/26 04:06:32;;;;;;;;;;;;;;;17.24;71.54;101262.84;5024760;28;20014;-92
2022/06/26 04:08:57;;;;;;;;;;;;;;;17.20;70.87;101258.63;5023756;28;20055;-92
2022/06/26 04:11:22;;;;;;;;;;;;;;;17.12;71.29;101250.25;5019520;28;20360;-93
2022/06/26 04:13:49;;;;;;;;;;;;;;;17.09;71.76;101253.94;5022864;28;19917;-92
2022/06/26 04:16:14;;;;;;;;;;;;;;;17.11;71.23;101258.34;5023626;28;19917;-89
2022/06/26 04:18:40;;;;;;;;;;;;;;;17.01;72.98;101250.88;5028005;28;20546;-91
2022/06/26 04:21:05;;;;;;;;;;;;;;;16.93;72.06;101255.00;5029957;28;19991;-93
2022/06/26 04:23:30;;;;;;;;;;;;;;;16.93;71.81;101265.69;5036533;28;20391;-93
2022/06/26 04:25:55;;;;;;;;;;;;;;;16.88;74.45;101265.06;5025126;28;20353;-92
2022/06/26 04:28:20;;;;;;;;;;;;;;;16.87;73.54;101266.88;5029329;28;19939;-92
2022/06/26 04:30:46;;;;;;;;;;;;;;;16.82;74.40;101275.16;5030492;28;20280;-93
2022/06/26 04:33:11;;;;;;;;;;;;;;;16.87;73.23;101290.06;5026434;28;19913;-92
2022/06/26 04:35:36;;;;;;;;;;;;;;;16.88;72.93;101292.66;5026928;28;19929;-92
2022/06/26 04:38:02;;;;;;;;;;;;;;;16.83;72.65;101295.59;5030817;28;20371;-93
2022/06/26 04:40:27;;;;;;;;;;;;;;;16.88;72.62;101302.44;5020763;28;19914;-92
2022/06/26 04:42:53;;;;;;;;;;;;;;;16.95;71.99;101303.81;5022654;28;19926;-94
2022/06/26 04:45:19;;;;;;;;;;;;;;;17.04;72.33;101308.63;5023884;28;20456;-90
2022/06/26 04:47:44;;;;;;;;;;;;;;;16.99;71.92;101313.38;5034584;28;19913;-94
2022/06/26 04:50:09;;;;;;;;;;;;;;;16.99;71.88;101311.56;5024955;28;19963;-92
2022/06/26 04:52:34;;;;;;;;;;;;;;;17.02;73.21;101316.72;5026870;28;19917;-94
2022/06/26 04:55:00;;;;;;;;;;;;;;;17.04;72.07;101325.50;5026824;28;19917;-90
2022/06/26 04:57:25;;;;;;;;;;;;;;;17.15;72.44;101318.66;5026254;28;19913;-93
2022/06/26 04:59:50;;;;;;;;;;;;;;;17.20;72.49;101311.22;5038227;28;19924;-91
2022/06/26 05:02:15;;;;;;;;;;;;;;;17.16;73.70;101310.56;5018997;28;19917;-94
2022/06/26 05:04:41;;;;;;;;;;;;;;;17.11;73.38;101323.31;5024238;28;20058;-92
2022/06/26 05:07:06;;;;;;;;;;;;;;;17.08;73.84;101329.72;5017491;28;19913;-91
2022/06/26 05:09:31;;;;;;;;;;;;;;;17.15;73.30;101322.19;5027340;28;19920;-93
2022/06/26 05:11:57;;;;;;;;;;;;;;;17.15;72.60;101326.66;5026692;28;19928;-94
2022/06/26 05:14:23;;;;;;;;;;;;;;;17.16;72.29;101326.59;5021458;28;20015;-92
2022/06/26 05:16:48;;;;;;;;;;;;;;;17.12;73.58;101318.84;5016358;28;19943;-93
2022/06/26 05:19:13;;;;;;;;;;;;;;;17.11;73.09;101323.31;5031231;28;19920;-93
2022/06/26 05:21:38;;;;;;;;;;;;;;;17.19;72.40;101328.22;5026659;28;19931;-94
2022/06/26 05:24:04;;;;;;;;;;;;;;;17.28;72.02;101331.19;5022312;28;19924;-95
2022/06/26 05:26:29;;;;;;;;;;;;;;;17.34;71.92;101329.94;5025131;28;19928;-91
2022/06/26 05:28:55;;;;;;;;;;;;;;;17.28;72.31;101327.66;5023572;28;19924;-93
2022/06/26 05:31:21;;;;;;;;;;;;;;;17.31;72.36;101319.47;5020199;28;19917;-93
2022/06/26 05:33:46;;;;;;;;;;;;;;;17.40;71.75;101318.03;5025793;28;19913;-91
2022/06/26 05:36:12;;;;;;;;;;;;;;;17.32;73.07;101316.69;5024232;28;19959;-92
2022/06/26 05:38:37;;;;;;;;;;;;;;;17.27;72.04;101313.44;5027842;28;19913;-92
2022/06/26 05:41:02;;;;;;;;;;;;;;;17.33;72.43;101320.22;5021927;28;19921;-94
2022/06/26 05:43:28;;;;;;;;;;;;;;;17.34;71.56;101328.13;5033654;28;19932;-93
2022/06/26 05:45:53;;;;;;;;;;;;;;;17.33;73.02;101333.56;5022217;28;19923;-95
2022/06/26 05:48:18;;;;;;;;;;;;;;;17.29;72.99;101343.59;5028686;28;20364;-93
2022/06/26 05:50:44;;;;;;;;;;;;;;;17.31;72.69;101341.69;5025330;28;20297;-93
2022/06/26 05:53:09;;;;;;;;;;;;;;;17.33;72.23;101345.13;5022450;28;19913;-92
2022/06/26 05:55:34;;;;;;;;;;;;;;;17.43;71.59;101364.13;5023025;28;20387;-92
2022/06/26 05:57:59;;;;;;;;;;;;;;;17.57;71.60;101371.31;5030078;28;19913;-93
2022/06/26 06:00:25;;;;;;;;;;;;;;;17.64;72.54;101374.50;5025083;28;19921;-93
2022/06/26 06:02:50;;;;;;;;;;;;;;;17.70;71.63;101366.94;5024161;28;19924;-94
2022/06/26 06:05:16;;;;;;;;;;;;;;;17.77;71.95;101365.66;5027021;28;19921;-92
2022/06/26 06:07:41;;;;;;;;;;;;;;;17.96;70.84;101367.19;5020878;28;19939;-93
2022/06/26 06:10:07;;;;;;;;;;;;;;;18.20;70.23;101378.16;5033672;28;19912;-93
2022/06/26 06:12:33;;;;;;;;;;;;;;;18.32;71.07;101382.72;5015113;28;19913;-92
2022/06/26 06:14:58;;;;;;;;;;;;;;;18.42;69.84;101389.22;5020031;28;19909;-93
2022/06/26 06:17:35;;;;;;;;;;;;;;;18.52;69.21;101385.00;5025949;28;19917;-94
2022/06/26 06:20:00;;;;;;;;;;;;;;;18.69;69.05;101373.19;5015806;28;20596;-94
2022/06/26 06:22:26;;;;;;;;;;;;;;;18.95;68.87;101375.97;5025088;28;19971;-92
2022/06/26 06:24:51;;;;;;;;;;;;;;;19.22;67.66;101379.47;5019795;28;19955;-93
2022/06/26 06:27:16;;;;;;;;;;;;;;;19.43;68.14;101371.78;5022178;28;19971;-92
2022/06/26 06:29:41;;;;;;;;;;;;;;;19.57;67.15;101376.19;5024153;28;19964;-93
2022/06/26 06:32:07;;;;;;;;;;;;;;;19.61;66.95;101361.63;5023468;28;20415;-94
2022/06/26 06:34:33;;;;;;;;;;;;;;;19.66;67.43;101361.31;5021322;28;19952;-93
2022/06/26 06:36:58;;;;;;;;;;;;;;;19.75;66.85;101372.25;5027639;28;19971;-93
2022/06/26 06:39:23;;;;;;;;;;;;;;;19.74;66.65;101373.22;5034158;28;19995;-93
2022/06/26 06:41:48;;;;;;;;;;;;;;;19.82;66.22;101394.16;5025612;28;20357;-93
2022/06/26 06:44:14;;;;;;;;;;;;;;;19.67;66.28;101384.50;5014035;28;19921;-94
2022/06/26 06:46:39;;;;;;;;;;;;;;;19.67;66.39;101385.34;5030762;28;19917;-95
2022/06/26 06:49:04;;;;;;;;;;;;;;;19.68;66.04;101396.94;5036032;28;19960;-95
2022/06/26 06:51:30;;;;;;;;;;;;;;;19.65;65.98;101408.75;5028888;28;19928;-93
2022/06/26 06:53:55;;;;;;;;;;;;;;;19.75;66.37;101419.69;5026503;28;19913;-94
2022/06/26 06:56:20;;;;;;;;;;;;;;;19.47;66.62;101436.78;5027772;28;19917;-94
2022/06/26 06:58:45;;;;;;;;;;;;;;;19.54;66.94;101424.69;5024595;28;20011;-93
2022/06/26 07:01:11;;;;;;;;;;;;;;;19.53;66.44;101433.69;5025778;28;20269;-93
2022/06/26 07:03:36;;;;;;;;;;;;;;;19.44;66.26;101445.91;5038642;28;20584;-94
2022/06/26 07:06:01;;;;;;;;;;;;;;;19.45;66.26;101455.69;5028192;28;19917;-91
2022/06/26 07:08:26;;;;;;;;;;;;;;;19.50;66.46;101455.38;5030708;28;19913;-94
2022/06/26 07:10:51;;;;;;;;;;;;;;;19.50;66.30;101458.06;5025809;28;19987;-95
2022/06/26 07:13:17;;;;;;;;;;;;;;;19.48;66.17;101465.31;5023479;28;19917;-91
2022/06/26 07:15:42;;;;;;;;;;;;;;;19.70;65.64;101471.00;5027199;28;19921;-94
2022/06/26 07:18:07;;;;;;;;;;;;;;;19.82;65.17;101463.94;5024709;28;19963;-94
2022/06/26 07:20:33;;;;;;;;;;;;;;;19.80;65.92;101472.06;5037300;28;20376;-93
2022/06/26 07:22:58;;;;;;;;;;;;;;;19.77;65.65;101458.00;5035743;28;19921;-93
2022/06/26 07:25:23;;;;;;;;;;;;;;;19.99;65.51;101458.22;5022409;28;20371;-92
2022/06/26 07:27:48;;;;;;;;;;;;;;;20.20;65.21;101453.19;5025861;28;19921;-92
2022/06/26 07:30:15;;;;;;;;;;;;;;;20.49;64.86;101450.28;5029192;28;19924;-93
2022/06/26 07:32:40;;;;;;;;;;;;;;;20.80;63.54;101452.47;5028261;28;20429;-91
2022/06/26 07:35:06;;;;;;;;;;;;;;;20.97;62.63;101453.88;5028171;28;19916;-92
2022/06/26 07:37:31;;;;;;;;;;;;;;;20.91;63.14;101467.78;5023915;28;19964;-91
2022/06/26 07:39:56;;;;;;;;;;;;;;;20.92;62.85;101471.34;5024197;28;19919;-92
2022/06/26 07:42:22;;;;;;;;;;;;;;;20.56;62.36;101467.66;5027248;28;19917;-86
2022/06/26 07:44:48;;;;;;;;;;;;;;;20.40;63.56;101467.88;5031915;28;19982;-87
2022/06/26 07:47:13;;;;;;;;;;;;;;;20.33;63.60;101458.53;5023699;28;20339;-88
2022/06/26 07:49:38;;;;;;;;;;;;;;;20.32;63.97;101460.34;5020813;28;20249;-86
2022/06/26 07:52:04;;;;;;;;;;;;;;;20.55;63.25;101460.56;5025415;28;20315;-87
2022/06/26 07:54:29;;;;;;;;;;;;;;;20.72;62.63;101470.97;5032317;28;20356;-88
2022/06/26 07:56:54;;;;;;;;;;;;;;;20.74;62.58;101469.00;5019268;28;19916;-87
2022/06/26 07:59:19;;;;;;;;;;;;;;;20.62;62.60;101472.63;5026950;28;19963;-87
2022/06/26 08:01:45;;;;;;;;;;;;;;;20.55;62.69;101476.69;5024530;28;20372;-87
2022/06/26 08:04:10;;;;;;;;;;;;;;;20.65;62.83;101480.44;5022071;28;20431;-87
2022/06/26 08:06:35;;;;;;;;;;;;;;;20.85;62.69;101481.69;5026225;28;20360;-89
2022/06/26 08:09:01;;;;;;;;;;;;;;;20.99;62.66;101478.00;5024615;28;19960;-87
2022/06/26 08:11:26;;;;;;;;;;;;;;;21.00;62.07;101488.63;5025031;28;20472;-89
2022/06/26 08:13:51;;;;;;;;;;;;;;;20.93;62.22;101489.16;5026507;28;19935;-87
2022/06/26 08:16:17;;;;;;;;;;;;;;;20.72;61.71;101494.28;5024490;28;20304;-86
2022/06/26 08:18:42;;;;;;;;;;;;;;;20.68;62.39;101493.66;5024329;28;20434;-87
2022/06/26 08:23:51;;;;;;;;;;;;;;;20.76;62.76;101495.78;5021172;28;20302;-86
2022/06/26 08:26:16;;;;;;;;;;;;;;;20.81;62.44;101499.00;5025150;28;20000;-86
2022/06/26 08:28:42;;;;;;;;;;;;;;;20.80;62.35;101502.66;5024142;28;20001;-88
2022/06/26 08:31:07;;;;;;;;;;;;;;;20.70;62.67;101496.22;5024715;28;20023;-87
2022/06/26 08:33:32;;;;;;;;;;;;;;;20.71;62.56;101493.44;5027917;28;19917;-87
2022/06/26 08:35:57;;;;;;;;;;;;;;;20.85;62.32;101492.44;5023657;28;20006;-87
2022/06/26 08:38:23;;;;;;;;;;;;;;;20.78;61.79;101485.78;5028414;28;20312;-87
2022/06/26 08:40:48;;;;;;;;;;;;;;;20.67;62.07;101488.41;5015178;28;20227;-87
2022/06/26 08:43:16;;;;;;;;;;;;;;;20.64;61.41;101487.63;5026290;28;20363;-86
2022/06/26 08:45:43;;;;;;;;;;;;;;;20.49;61.84;101490.56;5020846;28;19917;-87
2022/06/26 08:48:09;;;;;;;;;;;;;;;20.44;62.71;101498.94;5025770;28;19929;-86
2022/06/26 08:50:35;;;;;;;;;;;;;;;20.36;62.77;101507.53;5024080;28;20288;-86
2022/06/26 08:53:01;;;;;;;;;;;;;;;20.30;63.16;101507.97;5024435;28;19945;-87
2022/06/26 08:55:26;;;;;;;;;;;;;;;20.30;62.54;101512.47;5027983;28;20330;-87
2022/06/26 08:57:51;;;;;;;;;;;;;;;20.25;62.50;101510.13;5024650;28;19913;-87
2022/06/26 09:00:17;;;;;;;;;;;;;;;20.24;62.78;101513.78;5021729;28;19936;-86
2022/06/26 09:02:43;;;;;;;;;;;;;;;20.21;62.34;101510.44;5022862;28;19929;-86
2022/06/26 09:05:08;;;;;;;;;;;;;;;20.35;62.64;101507.63;5024871;28;19913;-86
2022/06/26 09:07:43;;;;;;;;;;;;;;;20.46;62.19;101502.34;5022850;28;19913;-87
2022/06/26 09:10:09;;;;;;;;;;;;;;;20.60;61.91;101504.94;5025929;28;19913;-86
2022/06/26 09:12:35;;;;;;;;;;;;;;;20.61;61.56;101503.09;5025341;28;19923;-87
2022/06/26 09:15:01;;;;;;;;;;;;;;;20.67;61.08;101505.38;5023670;28;20289;-86
2022/06/26 09:17:26;;;;;;;;;;;;;;;20.75;61.18;101505.69;5027406;28;19920;-86
2022/06/26 09:19:51;;;;;;;;;;;;;;;20.90;60.92;101511.78;5034439;28;19913;-87
2022/06/26 09:22:17;;;;;;;;;;;;;;;20.89;60.75;101505.53;5022584;28;19921;-86
2022/06/26 09:24:53;;;;;;;;;;;;;;;20.91;60.69;101505.44;5027670;28;20997;-86
2022/06/26 09:27:18;;;;;;;;;;;;;;;20.83;60.72;101492.53;5020380;28;19964;-87
2022/06/26 09:29:47;;;;;;;;;;;;;;;20.93;60.87;101495.41;5027039;28;20757;-88
2022/06/26 09:32:14;;;;;;;;;;;;;;;21.11;60.38;101496.75;5026103;28;19924;-86
2022/06/26 09:34:43;;;;;;;;;;;;;;;21.22;59.98;101504.03;5019203;28;19920;-86
2022/06/26 09:37:10;;;;;;;;;;;;;;;21.22;59.42;101519.31;5018923;28;19920;-87
2022/06/26 09:39:35;;;;;;;;;;;;;;;21.20;59.28;101521.25;5028756;28;20040;-87
2022/06/26 09:42:15;;;;;;;;;;;;;;;21.20;59.67;101522.09;5022701;28;20000;-87
2022/06/26 09:44:47;;;;;;;;;;;;;;;21.19;59.62;101522.22;5021070;28;19921;-87
2022/06/26 09:47:30;;;;;;;;;;;;;;;21.19;59.16;101517.69;5022947;28;20418;-87
2022/06/26 09:49:57;;;;;;;;;;;;;;;21.04;58.86;101513.47;5023427;28;20498;-87
2022/06/26 09:52:24;;;;;;;;;;;;;;;21.21;59.21;101518.44;5022413;28;20356;-87
2022/06/26 09:54:51;;;;;;;;;;;;;;;21.35;58.93;101526.34;5018329;28;20290;-87
2022/06/26 09:57:16;;;;;;;;;;;;;;;21.36;58.37;101514.66;5021197;28;19974;-86
2022/06/26 09:59:42;;;;;;;;;;;;;;;21.24;59.05;101526.28;5024767;28;20399;-86
2022/06/26 10:07:48;;;;;;;;;;;;;;;21.45;58.01;101539.13;5018175;28;19919;-87
2022/06/26 10:10:14;;;;;;;;;;;;;;;21.47;58.28;101526.44;5024868;28;20011;-88
2022/06/26 10:12:40;;;;;;;;;;;;;;;21.63;57.75;101532.34;5027846;28;20011;-87
2022/06/26 10:15:06;;;;;;;;;;;;;;;21.44;55.56;101535.56;5024001;28;20368;-87
2022/06/26 10:17:50;;;;;;;;;;;;;;;21.54;56.86;101547.41;5032360;28;19927;-87
2022/06/26 10:20:18;;;;;;;;;;;;;;;21.60;55.58;101554.13;5027441;28;19913;-88
2022/06/26 10:22:44;;;;;;;;;;;;;;;21.66;55.84;101556.34;5031673;28;20358;-88
2022/06/26 10:25:28;;;;;;;;;;;;;;;21.75;55.96;101557.50;5027683;28;20364;-87
2022/06/26 10:27:54;;;;;;;;;;;;;;;21.75;54.51;101554.81;5017617;28;20656;-87
2022/06/26 10:30:20;;;;;;;;;;;;;;;21.67;56.37;101547.31;5017228;28;19928;-89
2022/06/26 10:32:46;;;;;;;;;;;;;;;21.79;56.87;101541.00;5024336;28;19913;-88
2022/06/26 10:35:12;;;;;;;;;;;;;;;21.91;56.65;101550.81;5024645;28;19913;-88
2022/06/26 10:37:48;;;;;;;;;;;;;;;22.01;56.97;101553.69;5029930;28;19916;-87
2022/06/26 10:42:52;;;;;;;;;;;;;;;22.03;56.45;101550.84;5026647;28;20595;-87
2022/06/26 10:43:01;;;;;;;;;;;;;;;22.00;57.26;101551.94;5029053;28;19920;-87
2022/06/26 10:45:31;;;;;;;;;;;;;;;21.98;56.67;101550.34;5026678;28;19917;-87
2022/06/26 10:48:00;;;;;;;;;;;;;;;22.05;56.66;101557.81;5026792;28;19931;-88
2022/06/26 10:50:25;;;;;;;;;;;;;;;22.14;56.65;101556.28;5024917;28;19912;-86
2022/06/26 10:52:51;;;;;;;;;;;;;;;22.28;56.41;101552.53;5026996;28;19917;-87
2022/06/26 10:55:16;;;;;;;;;;;;;;;22.54;56.01;101548.66;5022769;28;19924;-88
2022/06/26 10:57:41;;;;;;;;;;;;;;;22.85;55.38;101551.59;5020379;28;20359;-87
2022/06/26 11:00:10;;;;;;;;;;;;;;;22.78;54.79;101548.53;5026817;28;19920;-87
2022/06/26 11:02:36;;;;;;;;;;;;;;;23.05;54.90;101552.69;5031010;28;19917;-88
2022/06/26 11:05:02;;;;;;;;;;;;;;;23.34;54.36;101561.09;5024829;28;20360;-88
2022/06/26 11:07:28;;;;;;;;;;;;;;;23.39;53.35;101558.88;5027665;28;19982;-88
2022/06/26 11:09:57;;;;;;;;;;;;;;;23.05;53.00;101555.41;5026371;28;19913;-88
2022/06/26 11:12:22;;;;;;;;;;;;;;;23.17;54.53;101554.38;5027532;28;19920;-87
2022/06/26 11:14:47;;;;;;;;;;;;;;;23.34;53.46;101550.31;5034470;28;19913;-88
2022/06/26 11:17:12;;;;;;;;;;;;;;;23.37;54.31;101540.13;5031019;28;20356;-87
2022/06/26 11:22:22;;;;;;;;;;;;;;;23.44;51.85;101535.06;5017068;28;19978;-87
2022/06/26 11:24:54;;;;;;;;;;;;;;;23.45;52.46;101525.97;5024093;28;19928;-87
2022/06/26 11:27:23;;;;;;;;;;;;;;;23.46;52.99;101526.84;5030211;28;19956;-87
2022/06/26 11:29:48;;;;;;;;;;;;;;;23.47;53.21;101523.16;5027455;28;19917;-87
2022/06/26 11:32:13;;;;;;;;;;;;;;;23.49;52.53;101527.44;5026485;28;20406;-88
2022/06/26 11:34:55;;;;;;;;;;;;;;;23.50;52.97;101521.06;5025169;28;19913;-88
2022/06/26 11:37:34;;;;;;;;;;;;;;;23.38;53.00;101525.63;5030853;28;20429;-87
2022/06/26 11:39:59;;;;;;;;;;;;;;;23.22;53.53;101519.78;5022249;28;19956;-88
2022/06/26 11:42:24;;;;;;;;;;;;;;;23.08;53.55;101520.06;5022625;28;19980;-87
2022/06/26 11:44:50;;;;;;;;;;;;;;;22.92;54.61;101528.56;5020529;28;19914;-86
2022/06/26 11:47:16;;;;;;;;;;;;;;;22.79;54.61;101523.28;5023841;28;20364;-87
2022/06/26 11:49:41;;;;;;;;;;;;;;;22.65;55.37;101518.13;5025952;28;19909;-87
2022/06/26 11:52:07;;;;;;;;;;;;;;;22.63;55.25;101525.50;5026715;28;20288;-87
2022/06/26 11:54:32;;;;;;;;;;;;;;;22.54;55.65;101519.00;5023444;28;20003;-87
2022/06/26 11:57:03;;;;;;;;;;;;;;;22.44;55.25;101525.25;5018544;28;19920;-87
2022/06/26 11:59:28;;;;;;;;;;;;;;;22.31;55.07;101533.44;5027759;28;20010;-87
2022/06/26 12:01:53;;;;;;;;;;;;;;;22.33;55.31;101537.72;5024416;28;19948;-86
2022/06/26 12:04:19;;;;;;;;;;;;;;;22.42;55.27;101537.00;5020311;28;20358;-87
2022/06/26 12:06:50;;;;;;;;;;;;;;;22.54;55.04;101534.31;5025778;28;19919;-87
2022/06/26 12:09:24;;;;;;;;;;;;;;;22.65;55.41;101537.84;5024977;28;19917;-87
2022/06/26 12:11:51;;;;;;;;;;;;;;;22.59;54.96;101542.91;5027636;28;19925;-87
2022/06/26 12:14:17;;;;;;;;;;;;;;;22.56;54.27;101538.59;5027717;28;20303;-87
2022/06/26 12:16:47;;;;;;;;;;;;;;;22.45;55.17;101551.22;5027039;28;20281;-86
2022/06/26 12:19:12;;;;;;;;;;;;;;;22.30;54.97;101554.13;5020515;28;20357;-86
2022/06/26 12:21:38;;;;;;;;;;;;;;;22.24;55.55;101551.03;5023082;28;19971;-86
2022/06/26 12:24:09;;;;;;;;;;;;;;;22.18;55.05;101547.00;5029296;28;19928;-87
2022/06/26 12:26:37;;;;;;;;;;;;;;;22.09;55.24;101551.22;5029657;28;20276;-86
2022/06/26 12:29:07;;;;;;;;;;;;;;;21.99;55.91;101552.94;5022244;28;20415;-87
2022/06/26 12:31:32;;;;;;;;;;;;;;;22.01;55.87;101553.69;5019154;28;19916;-86
2022/06/26 12:33:57;;;;;;;;;;;;;;;22.05;55.49;101548.88;5023208;28;19924;-86
2022/06/26 12:36:22;;;;;;;;;;;;;;;22.11;55.99;101548.44;5021926;28;20217;-86
2022/06/26 12:38:48;;;;;;;;;;;;;;;22.10;55.86;101541.31;5023970;28;20360;-86
2022/06/26 12:41:16;;;;;;;;;;;;;;;22.23;55.69;101549.34;5018466;28;19932;-85
2022/06/26 12:43:45;;;;;;;;;;;;;;;22.36;55.23;101534.78;5044787;28;19921;-86
2022/06/26 12:46:10;;;;;;;;;;;;;;;22.52;55.34;101544.34;5023195;28;19921;-86